Time;durP1;ratioP1;P1;durP2;ratioP2;P2;SDS_P1;SDS_P2;PMS_P1;PMS_P2;Temp;Humidity;BMP_temperature;BMP_pressure;BME280_temperature;BME280_humidity;BME280_pressure;Samples;Min_cycle;Max_cycle;Signal;HPM_P1;HPM_P2
2021/07/02 00:01:04;;;;;;;;;;;;;;;17.69;65.26;100585.28;1636602;86;20498;-72
2021/07/02 00:03:30;;;;;;;;;;;;;;;17.66;65.26;100583.69;1644829;86;20491;-72
2021/07/02 00:05:57;;;;;;;;;;;;;;;17.67;65.30;100584.08;1637138;86;20158;-73
2021/07/02 00:08:26;;;;;;;;;;;;;;;17.67;65.28;100586.70;1620811;86;20571;-73
2021/07/02 00:10:51;;;;;;;;;;;;;;;17.69;65.39;100587.90;1635623;86;20493;-73
2021/07/02 00:13:23;;;;;;;;;;;;;;;17.67;65.35;100591.92;1620814;87;20488;-73
2021/07/02 00:15:49;;;;;;;;;;;;;;;17.70;65.43;100589.59;1622009;86;20840;-73
2021/07/02 00:18:15;;;;;;;;;;;;;;;17.70;65.40;100583.91;1639989;86;20599;-73
2021/07/02 00:20:42;;;;;;;;;;;;;;;17.69;65.43;100579.59;1640322;87;20532;-73
2021/07/02 00:23:08;;;;;;;;;;;;;;;17.68;65.49;100584.44;1640890;86;20180;-72
2021/07/02 00:25:37;;;;;;;;;;;;;;;17.69;65.50;100588.75;1640486;86;20197;-72
2021/07/02 00:28:02;;;;;;;;;;;;;;;17.69;65.50;100588.75;1640854;86;20561;-72
2021/07/02 00:30:28;;;;;;;;;;;;;;;17.69;65.55;100586.59;1640408;86;20516;-72
2021/07/02 00:32:56;;;;;;;;;;;;;;;17.67;65.47;100581.46;1643610;86;20454;-72
2021/07/02 00:35:22;;;;;;;;;;;;;;;17.62;65.55;100581.25;1640389;86;20725;-72
2021/07/02 00:37:48;;;;;;;;;;;;;;;17.58;65.64;100577.08;1639628;86;20485;-72
2021/07/02 00:40:25;;;;;;;;;;;;;;;17.57;65.72;100580.15;1640826;86;20465;-72
2021/07/02 00:42:51;;;;;;;;;;;;;;;17.54;65.78;100574.59;1628242;86;20603;-72
2021/07/02 00:45:17;;;;;;;;;;;;;;;17.57;65.84;100580.61;1641333;86;20477;-72
2021/07/02 00:47:43;;;;;;;;;;;;;;;17.58;65.84;100578.38;1640931;86;20461;-72
2021/07/02 00:50:11;;;;;;;;;;;;;;;17.57;65.85;100577.53;1641048;86;20211;-72
2021/07/02 00:52:37;;;;;;;;;;;;;;;17.57;65.76;100580.15;1642205;86;20107;-72
2021/07/02 00:55:03;;;;;;;;;;;;;;;17.54;65.89;100580.29;1632695;86;20852;-72
2021/07/02 00:57:30;;;;;;;;;;;;;;;17.52;65.96;100586.89;1639004;87;20430;-72
2021/07/02 00:59:55;;;;;;;;;;;;;;;17.56;66.04;100586.75;1642096;86;20139;-72
2021/07/02 01:02:23;;;;;;;;;;;;;;;17.57;65.98;100592.38;1641518;86;20466;-72
2021/07/02 01:04:48;;;;;;;;;;;;;;;17.53;66.06;100584.67;1640559;86;20593;-72
2021/07/02 01:07:15;;;;;;;;;;;;;;;17.54;66.11;100577.67;1642005;86;20891;-72
2021/07/02 01:09:44;;;;;;;;;;;;;;;17.49;66.04;100573.95;1629013;86;20418;-72
2021/07/02 01:12:11;;;;;;;;;;;;;;;17.48;66.22;100580.11;1642254;86;20709;-72
2021/07/02 01:14:38;;;;;;;;;;;;;;;17.52;66.23;100580.81;1642341;86;20133;-72
2021/07/02 01:17:04;;;;;;;;;;;;;;;17.53;66.27;100578.59;1641901;86;20540;-72
2021/07/02 01:19:30;;;;;;;;;;;;;;;17.52;66.28;100582.13;1641362;86;20185;-72
2021/07/02 01:21:56;;;;;;;;;;;;;;;17.53;66.30;100577.28;1642187;86;20792;-72
2021/07/02 01:24:23;;;;;;;;;;;;;;;17.54;66.34;100573.75;1642064;86;20677;-72
2021/07/02 01:26:50;;;;;;;;;;;;;;;17.57;66.38;100576.23;1640692;86;20521;-73
2021/07/02 01:29:16;;;;;;;;;;;;;;;17.57;66.39;100576.23;1638844;86;20411;-72
2021/07/02 01:31:42;;;;;;;;;;;;;;;17.55;66.45;100578.06;1641784;86;20513;-72
2021/07/02 01:34:08;;;;;;;;;;;;;;;17.58;66.48;100580.54;1645049;86;20435;-72
2021/07/02 01:36:34;;;;;;;;;;;;;;;17.60;66.45;100582.63;1642110;86;20434;-72
2021/07/02 01:39:00;;;;;;;;;;;;;;;17.61;66.52;100573.02;1641790;86;20158;-72
2021/07/02 01:41:26;;;;;;;;;;;;;;;17.62;66.45;100575.56;1642076;86;20537;-72
2021/07/02 01:43:52;;;;;;;;;;;;;;;17.60;66.54;100577.86;1641137;86;20177;-72
2021/07/02 01:46:18;;;;;;;;;;;;;;;17.60;66.55;100578.70;1642111;86;20410;-72
2021/07/02 01:48:46;;;;;;;;;;;;;;;17.56;66.57;100578.45;1641471;86;20430;-72
2021/07/02 01:51:12;;;;;;;;;;;;;;;17.54;66.66;100581.59;1642047;86;20431;-72
2021/07/02 01:53:44;;;;;;;;;;;;;;;17.53;66.72;100579.90;1630626;86;20500;-72
2021/07/02 01:56:10;;;;;;;;;;;;;;;17.52;66.75;100580.36;1640915;87;20240;-72
2021/07/02 01:58:36;;;;;;;;;;;;;;;17.54;66.71;100581.59;1640695;86;20280;-72
2021/07/02 02:01:08;;;;;;;;;;;;;;;17.53;66.82;100580.75;1640599;86;20218;-72
2021/07/02 02:03:34;;;;;;;;;;;;;;;17.56;66.85;100581.06;1647083;86;20264;-72
2021/07/02 02:06:00;;;;;;;;;;;;;;;17.58;66.86;100586.23;1640834;86;20158;-72
2021/07/02 02:08:26;;;;;;;;;;;;;;;17.59;66.87;100575.70;1640688;86;20194;-72
2021/07/02 02:10:52;;;;;;;;;;;;;;;17.62;66.89;100572.09;1636860;86;20278;-72
2021/07/02 02:13:18;;;;;;;;;;;;;;;17.63;66.89;100575.10;1637263;86;20358;-72
2021/07/02 02:15:45;;;;;;;;;;;;;;;17.60;66.85;100564.78;1640825;86;20196;-72
2021/07/02 02:18:11;;;;;;;;;;;;;;;17.55;66.93;100562.37;1638997;86;20206;-72
2021/07/02 02:20:38;;;;;;;;;;;;;;;17.56;67.05;100565.38;1637192;86;20312;-72
2021/07/02 02:23:04;;;;;;;;;;;;;;;17.60;67.03;100572.17;1632205;86;20142;-72
2021/07/02 02:25:30;;;;;;;;;;;;;;;17.64;67.08;100571.56;1623999;86;20149;-72
2021/07/02 02:27:59;;;;;;;;;;;;;;;17.65;67.13;100575.88;1616145;87;20208;-72
2021/07/02 02:30:25;;;;;;;;;;;;;;;17.69;67.12;100575.67;1638169;86;20138;-73
2021/07/02 02:32:51;;;;;;;;;;;;;;;17.71;67.14;100576.91;1639238;86;20215;-73
2021/07/02 02:35:17;;;;;;;;;;;;;;;17.73;67.15;100568.07;1637605;86;20229;-72
2021/07/02 02:37:43;;;;;;;;;;;;;;;17.76;67.08;100565.31;1637721;86;20229;-72
2021/07/02 02:40:10;;;;;;;;;;;;;;;17.76;67.16;100565.77;1638015;86;20242;-72
2021/07/02 02:42:36;;;;;;;;;;;;;;;17.75;67.14;100566.23;1626016;86;20237;-72
2021/07/02 02:45:03;;;;;;;;;;;;;;;17.78;67.14;100565.25;1637369;86;20228;-72
2021/07/02 02:47:29;;;;;;;;;;;;;;;17.78;67.26;100565.25;1637114;86;20162;-72
2021/07/02 02:49:56;;;;;;;;;;;;;;;17.82;67.27;100565.03;1637235;86;20218;-72
2021/07/02 02:52:22;;;;;;;;;;;;;;;17.82;67.24;100558.49;1637391;87;20165;-72
2021/07/02 02:54:49;;;;;;;;;;;;;;;17.85;67.22;100557.50;1634920;86;20135;-72
2021/07/02 02:57:14;;;;;;;;;;;;;;;17.83;67.24;100563.27;1638504;86;20236;-72
2021/07/02 02:59:41;;;;;;;;;;;;;;;17.83;67.29;100568.50;1635946;86;20208;-72
2021/07/02 03:02:07;;;;;;;;;;;;;;;17.83;67.34;100562.80;1638532;86;20099;-73
2021/07/02 03:04:35;;;;;;;;;;;;;;;17.83;67.31;100559.34;1640472;86;20477;-73
2021/07/02 03:07:09;;;;;;;;;;;;;;;17.79;67.28;100558.63;1638717;86;20147;-72
2021/07/02 03:09:35;;;;;;;;;;;;;;;17.79;67.43;100559.09;1638814;86;20196;-72
2021/07/02 03:12:03;;;;;;;;;;;;;;;17.80;67.46;100567.33;1638447;86;20193;-72
2021/07/02 03:14:38;;;;;;;;;;;;;;;17.79;67.43;100570.87;1638733;86;20138;-72
2021/07/02 03:17:04;;;;;;;;;;;;;;;17.77;67.48;100571.39;1623461;87;20149;-72
2021/07/02 03:19:31;;;;;;;;;;;;;;;17.76;67.47;100568.39;1631052;87;20112;-73
2021/07/02 03:21:57;;;;;;;;;;;;;;;17.75;67.50;100566.69;1567803;86;5000371;-72
2021/07/02 03:24:23;;;;;;;;;;;;;;;17.73;67.57;100566.77;1615232;87;20399;-72
2021/07/02 03:26:52;;;;;;;;;;;;;;;17.73;67.58;100568.07;1632650;86;20112;-72
2021/07/02 03:29:18;;;;;;;;;;;;;;;17.71;67.55;100570.38;1631706;86;20104;-72
2021/07/02 03:31:44;;;;;;;;;;;;;;;17.70;67.65;100573.91;1630914;86;20910;-72
2021/07/02 03:34:11;;;;;;;;;;;;;;;17.72;67.69;100571.61;1633225;86;20120;-72
2021/07/02 03:36:38;;;;;;;;;;;;;;;17.72;67.69;100570.30;1608654;88;20112;-72
2021/07/02 03:39:04;;;;;;;;;;;;;;;17.69;67.67;100570.44;1630396;86;20169;-73
2021/07/02 03:41:31;;;;;;;;;;;;;;;17.68;67.69;100571.81;1630665;86;20099;-73
2021/07/02 03:44:04;;;;;;;;;;;;;;;17.64;67.72;100575.48;1629534;88;20195;-72
2021/07/02 03:46:30;;;;;;;;;;;;;;;17.63;67.80;100574.64;1629249;88;20181;-72
2021/07/02 03:48:56;;;;;;;;;;;;;;;17.63;67.87;100579.87;1629498;87;20142;-72
2021/07/02 03:51:28;;;;;;;;;;;;;;;17.66;67.87;100585.00;1628529;87;20446;-72
2021/07/02 03:53:54;;;;;;;;;;;;;;;17.64;67.76;100579.41;1629222;88;20274;-72
2021/07/02 03:56:20;;;;;;;;;;;;;;;17.61;67.93;100582.17;1629388;87;20208;-72
2021/07/02 03:58:53;;;;;;;;;;;;;;;17.61;67.98;100581.70;1628851;87;20184;-72
2021/07/02 04:01:19;;;;;;;;;;;;;;;17.63;67.96;100585.56;1606048;88;20215;-72
2021/07/02 04:03:45;;;;;;;;;;;;;;;17.63;68.01;100586.87;1632096;86;20242;-72
2021/07/02 04:06:11;;;;;;;;;;;;;;;17.66;68.04;100595.45;1629568;88;20190;-72
2021/07/02 04:08:37;;;;;;;;;;;;;;;17.66;68.06;100588.92;1629543;87;20274;-72
2021/07/02 04:11:05;;;;;;;;;;;;;;;17.65;68.08;100591.14;1607371;88;20188;-72
2021/07/02 04:13:31;;;;;;;;;;;;;;;17.66;68.07;100588.92;1629185;88;20223;-72
2021/07/02 04:16:06;;;;;;;;;;;;;;;17.69;68.15;100581.36;1629246;88;20470;-72
2021/07/02 04:18:32;;;;;;;;;;;;;;;17.72;68.13;100585.99;1617664;87;20747;-72
2021/07/02 04:20:58;;;;;;;;;;;;;;;17.74;68.10;100583.31;1636778;87;20272;-73
2021/07/02 04:23:24;;;;;;;;;;;;;;;17.74;68.18;100584.61;1636292;87;20217;-72
2021/07/02 04:25:50;;;;;;;;;;;;;;;17.74;68.18;100590.69;1638047;87;20322;-72
2021/07/02 04:28:16;;;;;;;;;;;;;;;17.75;68.14;100595.01;1637411;86;20512;-72
2021/07/02 04:30:42;;;;;;;;;;;;;;;17.74;68.18;100595.92;1637511;86;20202;-72
2021/07/02 04:33:14;;;;;;;;;;;;;;;17.72;68.19;100592.53;1637894;86;20442;-73
2021/07/02 04:35:40;;;;;;;;;;;;;;;17.70;68.30;100587.83;1637517;86;21601;-73
2021/07/02 04:38:06;;;;;;;;;;;;;;;17.74;68.35;100591.16;1632803;87;20194;-73
2021/07/02 04:40:32;;;;;;;;;;;;;;;17.76;68.32;100591.47;1621511;86;20189;-74
2021/07/02 04:42:58;;;;;;;;;;;;;;;17.79;68.43;100596.56;1637452;86;20788;-73
2021/07/02 04:45:24;;;;;;;;;;;;;;;17.85;68.43;100599.36;1637866;86;20272;-73
2021/07/02 04:47:50;;;;;;;;;;;;;;;17.88;68.35;100597.91;1637326;86;20194;-73
2021/07/02 04:50:17;;;;;;;;;;;;;;;17.86;68.29;100600.59;1636021;87;20213;-72
2021/07/02 04:52:43;;;;;;;;;;;;;;;17.88;68.40;100600.52;1636485;87;20479;-72
2021/07/02 04:55:10;;;;;;;;;;;;;;;17.91;68.45;100598.22;1621775;87;20257;-73
2021/07/02 04:57:36;;;;;;;;;;;;;;;17.95;68.49;100601.09;1636177;87;20194;-72
2021/07/02 05:00:04;;;;;;;;;;;;;;;17.98;68.46;100603.56;1636809;86;20307;-72
2021/07/02 05:02:30;;;;;;;;;;;;;;;17.98;68.41;100597.87;1635955;86;20138;-72
2021/07/02 05:04:58;;;;;;;;;;;;;;;17.98;68.44;100595.25;1638191;86;20143;-72
2021/07/02 05:07:24;;;;;;;;;;;;;;;18.01;68.44;100598.19;1637896;86;20178;-72
2021/07/02 05:09:50;;;;;;;;;;;;;;;18.04;68.51;100599.35;1638216;86;20190;-72
2021/07/02 05:12:16;;;;;;;;;;;;;;;18.07;68.50;100600.52;1638643;87;20091;-72
2021/07/02 05:14:43;;;;;;;;;;;;;;;18.11;68.51;100604.69;1621123;87;20157;-72
2021/07/02 05:17:09;;;;;;;;;;;;;;;18.12;68.51;100604.61;1638628;86;20098;-72
2021/07/02 05:19:35;;;;;;;;;;;;;;;18.15;68.48;100603.63;1638197;86;20127;-72
2021/07/02 05:22:01;;;;;;;;;;;;;;;18.17;68.50;100609.63;1638524;86;20106;-72
2021/07/02 05:24:41;;;;;;;;;;;;;;;18.19;68.49;100611.72;1637730;86;20436;-73
2021/07/02 05:27:06;;;;;;;;;;;;;;;18.19;68.49;100603.86;1637819;86;20111;-73
2021/07/02 05:29:33;;;;;;;;;;;;;;;18.24;68.55;100611.47;1637885;86;20114;-72
2021/07/02 05:32:06;;;;;;;;;;;;;;;18.25;68.52;100607.92;1636993;86;20090;-72
2021/07/02 05:34:32;;;;;;;;;;;;;;;18.26;68.53;100611.78;1637851;86;20115;-72
2021/07/02 05:36:58;;;;;;;;;;;;;;;18.25;68.47;100616.63;1637031;86;20106;-72
2021/07/02 05:39:27;;;;;;;;;;;;;;;18.24;68.54;100611.00;1633356;86;20160;-72
2021/07/02 05:41:53;;;;;;;;;;;;;;;18.29;68.58;100610.33;1637044;87;20091;-72
2021/07/02 05:44:19;;;;;;;;;;;;;;;18.35;68.58;100614.42;1637583;86;20245;-72
2021/07/02 05:46:47;;;;;;;;;;;;;;;18.39;68.48;100612.05;1632631;86;20131;-72
2021/07/02 05:49:14;;;;;;;;;;;;;;;18.41;68.49;100612.36;1635093;87;20103;-72
2021/07/02 05:51:40;;;;;;;;;;;;;;;18.44;68.49;100609.59;1629323;87;20103;-73
2021/07/02 05:54:06;;;;;;;;;;;;;;;18.50;68.51;100619.77;1635235;87;20110;-73
2021/07/02 05:56:32;;;;;;;;;;;;;;;18.49;68.47;100612.84;1636450;87;20812;-73
2021/07/02 05:59:05;;;;;;;;;;;;;;;18.53;68.51;100610.91;1635563;87;20430;-72
2021/07/02 06:01:31;;;;;;;;;;;;;;;18.59;68.55;100616.31;1634209;86;20138;-73
2021/07/02 06:03:57;;;;;;;;;;;;;;;18.63;68.53;100623.98;1636455;86;20188;-73
2021/07/02 06:06:24;;;;;;;;;;;;;;;18.64;68.49;100620.44;1635154;86;20208;-73
2021/07/02 06:08:51;;;;;;;;;;;;;;;18.66;68.50;100619.05;1635367;86;20170;-73
2021/07/02 06:11:17;;;;;;;;;;;;;;;18.69;68.50;100620.21;1618075;87;20145;-73
2021/07/02 06:13:45;;;;;;;;;;;;;;;18.70;68.43;100628.45;1636390;86;20213;-73
2021/07/02 06:16:12;;;;;;;;;;;;;;;18.68;68.49;100625.91;1635471;86;20337;-73
2021/07/02 06:18:39;;;;;;;;;;;;;;;18.72;68.52;100621.34;1636762;87;20230;-73
2021/07/02 06:21:05;;;;;;;;;;;;;;;18.74;68.45;100628.66;1638122;86;20242;-73
2021/07/02 06:23:35;;;;;;;;;;;;;;;18.71;68.46;100627.53;1636302;86;20174;-73
2021/07/02 06:26:08;;;;;;;;;;;;;;;18.66;68.38;100619.91;1639403;86;20173;-73
2021/07/02 06:28:34;;;;;;;;;;;;;;;18.64;68.45;100624.37;1639713;87;20186;-73
2021/07/02 06:31:01;;;;;;;;;;;;;;;18.62;68.46;100626.21;1632438;86;20180;-72
2021/07/02 06:33:27;;;;;;;;;;;;;;;18.63;68.50;100631.84;1623314;86;20522;-74
2021/07/02 06:35:53;;;;;;;;;;;;;;;18.68;68.53;100626.38;1639148;86;20153;-73
2021/07/02 06:38:19;;;;;;;;;;;;;;;18.69;68.44;100627.61;1635503;87;20221;-73
2021/07/02 06:40:51;;;;;;;;;;;;;;;18.72;68.55;100626.11;1639659;85;20158;-73
2021/07/02 06:43:17;;;;;;;;;;;;;;;18.77;68.52;100636.37;1643791;85;20194;-74
2021/07/02 06:45:43;;;;;;;;;;;;;;;18.77;68.43;100633.75;1639729;85;20260;-72
2021/07/02 06:48:09;;;;;;;;;;;;;;;18.75;68.44;100631.20;1639492;86;20966;-72
2021/07/02 06:50:43;;;;;;;;;;;;;;;18.77;68.48;100632.44;1642636;86;20334;-73
2021/07/02 06:53:09;;;;;;;;;;;;;;;18.77;68.50;100632.44;1645682;85;20131;-73
2021/07/02 06:55:36;;;;;;;;;;;;;;;18.80;68.52;100632.28;1644823;85;20114;-73
2021/07/02 06:58:08;;;;;;;;;;;;;;;18.85;68.52;100629.83;1643475;85;20119;-72
2021/07/02 07:00:33;;;;;;;;;;;;;;;18.90;68.50;100639.23;1651779;85;20132;-71
2021/07/02 07:02:59;;;;;;;;;;;;;;;18.91;68.41;100631.29;1657259;85;20112;-72
2021/07/02 07:05:25;;;;;;;;;;;;;;;18.93;68.44;100632.52;1642910;86;20173;-72
2021/07/02 07:07:51;;;;;;;;;;;;;;;18.97;68.41;100632.30;1642354;85;20142;-72
2021/07/02 07:10:25;;;;;;;;;;;;;;;19.00;68.42;100629.52;1640402;87;20347;-72
2021/07/02 07:12:51;;;;;;;;;;;;;;;19.05;68.40;100631.45;1645061;85;20214;-72
2021/07/02 07:15:17;;;;;;;;;;;;;;;19.05;68.32;100633.22;1641825;87;20217;-72
2021/07/02 07:17:43;;;;;;;;;;;;;;;19.08;68.38;100635.69;1641331;85;20358;-72
2021/07/02 07:20:10;;;;;;;;;;;;;;;19.08;68.34;100636.53;1643952;85;20253;-72
2021/07/02 07:22:36;;;;;;;;;;;;;;;19.11;68.32;100635.53;1645216;85;20162;-72
2021/07/02 07:25:06;;;;;;;;;;;;;;;19.13;68.31;100640.23;1642454;87;20515;-72
2021/07/02 07:27:32;;;;;;;;;;;;;;;19.15;68.25;100640.54;1645571;86;20198;-72
2021/07/02 07:29:59;;;;;;;;;;;;;;;19.18;68.32;100644.31;1644912;85;20214;-72
2021/07/02 07:32:26;;;;;;;;;;;;;;;19.21;68.24;100651.64;1646408;86;20332;-74
2021/07/02 07:34:58;;;;;;;;;;;;;;;19.18;68.25;100653.49;1647221;85;20110;-74
2021/07/02 07:37:22;;;;;;;;;;;;;;;19.18;68.23;100653.49;1646641;87;20097;-74
2021/07/02 07:39:49;;;;;;;;;;;;;;;19.20;68.34;100655.19;1613101;87;20102;-74
2021/07/02 07:42:16;;;;;;;;;;;;;;;19.22;68.31;100653.34;1625211;87;20130;-74
2021/07/02 07:44:42;;;;;;;;;;;;;;;19.27;68.31;100658.70;1646262;85;20178;-75
2021/07/02 07:47:08;;;;;;;;;;;;;;;19.35;68.26;100663.55;1641577;86;20171;-75
2021/07/02 07:49:37;;;;;;;;;;;;;;;19.39;68.29;100662.00;1649145;86;20122;-74
2021/07/02 07:54:32;;;;;;;;;;;;;;;19.48;68.17;100660.68;1640509;86;20134;-74
2021/07/02 07:57:01;;;;;;;;;;;;;;;19.49;68.13;100661.06;1639150;86;20098;-74
2021/07/02 07:59:31;;;;;;;;;;;;;;;19.46;68.06;100667.78;1642215;86;20139;-75
2021/07/02 08:01:56;;;;;;;;;;;;;;;19.46;68.13;100665.16;1641746;86;20146;-74
2021/07/02 08:04:23;;;;;;;;;;;;;;;19.46;68.05;100679.58;1641289;86;20138;-74
2021/07/02 08:06:51;;;;;;;;;;;;;;;19.43;68.15;100673.19;1642400;87;20135;-74
2021/07/02 08:09:23;;;;;;;;;;;;;;;19.44;68.12;100681.44;1640072;87;20134;-75
2021/07/02 08:11:49;;;;;;;;;;;;;;;19.46;68.14;100678.27;1642282;87;20098;-75
2021/07/02 08:14:15;;;;;;;;;;;;;;;19.49;68.15;100676.80;1626563;86;20105;-75
2021/07/02 08:16:41;;;;;;;;;;;;;;;19.51;68.13;100676.29;1637655;87;20172;-75
2021/07/02 08:19:07;;;;;;;;;;;;;;;19.56;68.10;100675.59;1641694;87;20169;-74
2021/07/02 08:21:36;;;;;;;;;;;;;;;19.59;68.12;100678.52;1639068;86;20098;-74
2021/07/02 08:24:05;;;;;;;;;;;;;;;19.59;68.07;100674.12;1640796;87;20134;-74
2021/07/02 08:26:31;;;;;;;;;;;;;;;19.57;67.95;100675.97;1642428;86;20134;-74
2021/07/02 08:31:43;;;;;;;;;;;;;;;19.56;68.00;100682.61;1633380;87;20111;-74
2021/07/02 08:34:09;;;;;;;;;;;;;;;19.53;68.02;100687.55;1639246;86;20741;-74
2021/07/02 08:36:35;;;;;;;;;;;;;;;19.58;68.09;100691.25;1640863;87;20875;-74
2021/07/02 08:39:05;;;;;;;;;;;;;;;19.54;67.94;100688.40;1642222;86;20098;-74
2021/07/02 08:41:32;;;;;;;;;;;;;;;19.52;68.03;100687.63;1642235;86;20123;-74
2021/07/02 08:43:59;;;;;;;;;;;;;;;19.55;68.15;100687.01;1619842;87;20146;-74
2021/07/02 08:46:26;;;;;;;;;;;;;;;19.60;68.10;100688.93;1642402;86;20119;-74
2021/07/02 08:48:52;;;;;;;;;;;;;;;19.66;68.06;100691.70;1642025;86;20116;-74
2021/07/02 08:51:18;;;;;;;;;;;;;;;19.67;67.99;100688.14;1641968;86;20209;-75
2021/07/02 08:53:49;;;;;;;;;;;;;;;19.63;67.91;100688.77;1640574;87;20126;-75
2021/07/02 08:56:19;;;;;;;;;;;;;;;19.61;67.99;100689.31;1635845;87;20165;-75
2021/07/02 08:58:46;;;;;;;;;;;;;;;19.65;67.98;100690.84;1642045;87;20123;-75
2021/07/02 09:01:44;;;;;;;;;;;;;;;19.68;67.95;100693.31;1638943;87;20106;-74
2021/07/02 09:04:21;;;;;;;;;;;;;;;19.70;68.00;100698.48;1640446;86;20257;-74
2021/07/02 09:07:09;;;;;;;;;;;;;;;19.71;67.88;100698.86;1636532;86;20091;-75
2021/07/02 09:09:58;;;;;;;;;;;;;;;19.69;67.94;100698.09;1617253;87;20116;-75
2021/07/02 09:12:30;;;;;;;;;;;;;;;19.67;67.92;100699.48;1641437;87;20119;-74
2021/07/02 09:15:09;;;;;;;;;;;;;;;19.70;68.03;100699.33;1642690;86;20142;-74
2021/07/02 09:17:54;;;;;;;;;;;;;;;19.75;68.01;100696.00;1637695;87;20098;-75
2021/07/02 09:20:26;;;;;;;;;;;;;;;19.77;67.84;100694.58;1634062;86;20121;-75
2021/07/02 09:23:11;;;;;;;;;;;;;;;19.79;67.94;100698.81;1641844;86;20118;-74
2021/07/02 09:25:47;;;;;;;;;;;;;;;19.80;67.87;100696.58;1640505;87;20104;-74
2021/07/02 09:28:17;;;;;;;;;;;;;;;19.80;67.89;100702.28;1641228;87;20111;-74
2021/07/02 09:30:45;;;;;;;;;;;;;;;19.85;67.89;100696.33;1637548;86;20111;-74
2021/07/02 09:33:13;;;;;;;;;;;;;;;19.88;67.93;100700.11;1641393;86;20151;-74
2021/07/02 09:35:51;;;;;;;;;;;;;;;19.91;67.85;100697.78;1636196;87;20114;-75
2021/07/02 09:38:37;;;;;;;;;;;;;;;19.87;67.81;100694.47;1620978;87;20093;-75
2021/07/02 09:41:05;;;;;;;;;;;;;;;19.85;67.90;100692.39;1639840;86;20131;-75
2021/07/02 09:43:31;;;;;;;;;;;;;;;19.91;67.95;100697.32;1637202;86;20463;-74
2021/07/02 09:46:01;;;;;;;;;;;;;;;19.99;67.80;100696.45;1636572;87;20165;-75
2021/07/02 09:48:28;;;;;;;;;;;;;;;20.02;67.81;100695.44;1639201;86;20137;-75
2021/07/02 09:51:13;;;;;;;;;;;;;;;20.05;67.76;100690.86;1641212;86;20123;-75
2021/07/02 09:53:40;;;;;;;;;;;;;;;20.07;67.72;100687.69;1642838;86;20114;-75
2021/07/02 09:56:18;;;;;;;;;;;;;;;20.05;67.63;100689.55;1642957;86;20096;-75
2021/07/02 09:58:50;;;;;;;;;;;;;;;20.06;67.68;100691.72;1639838;87;20111;-75
2021/07/02 10:01:29;;;;;;;;;;;;;;;20.05;67.61;100691.33;1637092;87;20091;-75
2021/07/02 10:04:10;;;;;;;;;;;;;;;20.01;67.62;100695.05;1640845;86;20110;-75
2021/07/02 10:06:36;;;;;;;;;;;;;;;19.98;67.54;100696.52;1638817;86;20162;-75
2021/07/02 10:09:05;;;;;;;;;;;;;;;19.95;67.64;100698.85;1641411;87;20110;-75
2021/07/02 10:11:32;;;;;;;;;;;;;;;19.96;67.71;100701.86;1642089;87;20111;-75
2021/07/02 10:13:59;;;;;;;;;;;;;;;20.02;67.72;100704.16;1640226;86;20114;-75
2021/07/02 10:16:25;;;;;;;;;;;;;;;20.04;67.60;100704.08;1620148;87;20126;-75
2021/07/02 10:18:57;;;;;;;;;;;;;;;20.10;67.73;100705.06;1641763;87;20131;-75
2021/07/02 10:21:24;;;;;;;;;;;;;;;20.17;67.55;100706.42;1640650;86;20449;-74
2021/07/02 10:23:52;;;;;;;;;;;;;;;20.22;67.55;100702.23;1638896;87;20090;-74
2021/07/02 10:26:21;;;;;;;;;;;;;;;20.28;67.54;100700.09;1635283;87;20144;-74
2021/07/02 10:28:48;;;;;;;;;;;;;;;20.33;67.52;100699.38;1637724;86;20126;-74
2021/07/02 10:31:17;;;;;;;;;;;;;;;20.36;67.39;100695.27;1641711;86;20110;-74
2021/07/02 10:33:48;;;;;;;;;;;;;;;20.36;67.36;100698.36;1640110;86;20119;-74
2021/07/02 10:36:16;;;;;;;;;;;;;;;20.39;67.44;100691.66;1640734;86;20091;-74
2021/07/02 10:38:46;;;;;;;;;;;;;;;20.42;67.33;100698.05;1641638;86;20875;-75
2021/07/02 10:41:15;;;;;;;;;;;;;;;20.50;67.33;100697.16;1610834;87;20111;-75
2021/07/02 10:44:07;;;;;;;;;;;;;;;20.58;67.39;100695.42;1636225;86;20110;-75
2021/07/02 10:46:35;;;;;;;;;;;;;;;20.69;67.25;100695.66;1636337;87;20755;-75
2021/07/02 10:49:04;;;;;;;;;;;;;;;20.78;67.16;100699.09;1641788;86;20194;-75
2021/07/02 10:51:39;;;;;;;;;;;;;;;20.84;67.14;100692.13;1641708;86;20110;-75
2021/07/02 10:54:13;;;;;;;;;;;;;;;20.93;67.07;100686.34;1640320;87;20091;-75
2021/07/02 10:56:45;;;;;;;;;;;;;;;21.06;66.99;100682.08;1640365;87;20102;-74
2021/07/02 10:59:16;;;;;;;;;;;;;;;21.08;66.81;100675.41;1638278;87;20455;-74
2021/07/02 11:01:59;;;;;;;;;;;;;;;21.07;66.79;100669.78;1637777;86;20110;-75
2021/07/02 11:04:35;;;;;;;;;;;;;;;21.12;66.95;100672.52;1626127;87;20131;-76
2021/07/02 11:07:02;;;;;;;;;;;;;;;21.22;66.66;100668.06;1630662;87;20114;-76
2021/07/02 11:09:52;;;;;;;;;;;;;;;21.30;66.78;100665.36;1637424;87;20478;-76
2021/07/02 11:12:26;;;;;;;;;;;;;;;21.37;66.64;100661.86;1637918;86;40369;-76
2021/07/02 11:14:57;;;;;;;;;;;;;;;21.56;66.66;100657.18;1641314;86;20127;-76
2021/07/02 11:17:46;;;;;;;;;;;;;;;21.80;66.59;100659.62;1640573;87;20131;-74
2021/07/02 11:20:24;;;;;;;;;;;;;;;21.99;66.38;100658.45;1614653;87;20709;-73
2021/07/02 11:23:03;;;;;;;;;;;;;;;22.17;66.29;100659.97;1636287;87;20103;-73
2021/07/02 11:25:46;;;;;;;;;;;;;;;22.32;66.16;100658.99;1637687;87;20517;-73
2021/07/02 11:28:15;;;;;;;;;;;;;;;22.44;66.03;100658.17;1639546;86;20098;-73
2021/07/02 11:30:42;;;;;;;;;;;;;;;22.59;65.92;100652.86;1641528;87;20091;-73
2021/07/02 11:33:14;;;;;;;;;;;;;;;22.62;65.70;100649.55;1643079;86;20099;-73
2021/07/02 11:35:45;;;;;;;;;;;;;;;22.77;65.84;100656.45;1641540;86;20131;-73
2021/07/02 11:38:17;;;;;;;;;;;;;;;22.98;65.78;100658.14;1621383;87;20428;-73
2021/07/02 11:40:48;;;;;;;;;;;;;;;23.28;65.63;100657.02;1636968;86;20123;-73
2021/07/02 11:43:18;;;;;;;;;;;;;;;23.55;65.41;100655.13;1630905;87;20102;-73
2021/07/02 11:45:48;;;;;;;;;;;;;;;23.78;65.26;100646.93;1638302;87;20131;-73
2021/07/02 11:48:23;;;;;;;;;;;;;;;24.00;65.04;100648.39;1640256;87;20091;-73
2021/07/02 11:50:54;;;;;;;;;;;;;;;24.15;64.81;100650.89;1639910;86;20090;-73
2021/07/02 11:53:39;;;;;;;;;;;;;;;24.31;64.63;100646.22;1620549;87;20157;-73
2021/07/02 11:56:13;;;;;;;;;;;;;;;24.46;64.48;100645.55;1650900;85;20209;-73
2021/07/02 11:58:47;;;;;;;;;;;;;;;24.47;64.39;100641.95;1637934;87;20149;-73
2021/07/02 12:01:19;;;;;;;;;;;;;;;24.55;64.22;100648.36;1639514;87;20128;-74
2021/07/02 12:03:56;;;;;;;;;;;;;;;24.54;64.06;100647.16;1653452;85;20095;-74
2021/07/02 12:06:26;;;;;;;;;;;;;;;24.57;64.15;100647.77;1634938;87;20163;-74
2021/07/02 12:08:58;;;;;;;;;;;;;;;24.59;63.77;100638.41;1648686;86;20388;-75
2021/07/02 12:11:45;;;;;;;;;;;;;;;24.61;63.70;100631.20;1638596;87;20140;-75
2021/07/02 12:14:14;;;;;;;;;;;;;;;24.68;63.47;100633.76;1632085;86;20211;-73
2021/07/02 12:16:45;;;;;;;;;;;;;;;24.69;63.26;100624.87;1646429;86;20141;-75
2021/07/02 12:19:16;;;;;;;;;;;;;;;24.59;62.80;100621.22;1642550;86;20190;-73
2021/07/02 12:22:06;;;;;;;;;;;;;;;24.39;62.82;100611.67;1645560;87;20149;-73
2021/07/02 12:24:40;;;;;;;;;;;;;;;24.19;62.82;100622.81;1645493;86;20121;-72
2021/07/02 12:27:14;;;;;;;;;;;;;;;24.19;62.74;100620.17;1623351;87;20210;-72
2021/07/02 12:29:44;;;;;;;;;;;;;;;24.24;62.45;100615.40;1636344;87;20121;-73
2021/07/02 12:32:13;;;;;;;;;;;;;;;24.28;62.52;100619.53;1643255;86;20119;-74
2021/07/02 12:34:45;;;;;;;;;;;;;;;24.36;62.20;100619.82;1646118;87;20531;-73
2021/07/02 12:37:15;;;;;;;;;;;;;;;24.36;61.80;100615.86;1645381;86;20141;-76
2021/07/02 12:39:43;;;;;;;;;;;;;;;24.37;61.61;100620.66;1647439;87;20114;-76
2021/07/02 12:42:15;;;;;;;;;;;;;;;24.36;61.55;100618.50;1622658;87;20458;-77
2021/07/02 12:44:55;;;;;;;;;;;;;;;24.41;61.37;100618.16;1647884;85;20441;-76
2021/07/02 12:47:23;;;;;;;;;;;;;;;24.54;61.40;100614.11;1624114;87;20170;-77
2021/07/02 12:49:55;;;;;;;;;;;;;;;24.64;61.54;100608.50;1615408;87;20545;-77